Strona główna
METAR-TAF:

METAR-TAF

Lotnisko :

Delaware County Airport (Johnson Field)

Muncie, Indiana, Stany Zjednoczone

Szerokość geograficzna: 40-14-03N, Długość geograficzna: 085-23-37W, wysokość: 285 m

Aktualna obserwacja pogody

Raport powstał 57 minut temu, godzina 01:53 UTC
Wiatr 4 kt od południowo-południowy zachód
Temperatura 31°C
Wilgotność 63%
Ciśnienie 1013 hPa
Widzialność: 16.1 km
bezchmurnie

METAR: KMIE 210153Z 21004KT 10SM CLR 31/23 A2992 RMK AO2 SLP118 T03110233

czas: 22:50 (02:50 UTC)


TAF: brakujący

Obserwacja i prognoza pogody dla ponad 4000 lotnisk (raport METAR i TAF).

Dostępne stacje oznaczono żółtymi i czerwonymi punktami na mapie.

Najedź kursorem aby zobaczyć nazwę stacji.

Kliknij aby zobaczyć obserwacje i prognozy pogody.

Aby zmienić mapę: kliknij na zielony przycisk z czarnym krzyżykiem, aby powiększyć; na zielony przycisk z myślnikiem, aby pomniejszyć; na zielone strzałki, aby przejść do map sąsiednich.


METAR-TAF: